Aviation Digital Data Service (ADDS)

Output produced by METARs form (0521 UTC 19 February 2019)
found at http://www.aviationweather.gov/metar/data/
 
METAR text: LERT 190500Z VRB02KT 9999 FEW020 BKN058 13/10 Q1019 NOSIG
Conditions at: LERT (ROTA NAVAL STATI, ES) observed 0500 UTC 19 February 2019
Temperature: 13.0°C (55°F)
Dewpoint: 10.0°C (50°F) [RH = 82%]
Pressure (altimeter): 30.09 inches Hg (1019.0 mb)
Winds: variable direction winds at 2 MPH (2 knots; 1.0 m/s)
Visibility: 6 or more miles (10+ km)
Ceiling: 5800 feet AGL
Clouds: few clouds at 2000 feet AGL
broken clouds at 5800 feet AGL
Weather: no significant weather observed at this time

METAR text: LERT 190400Z 17003KT 140V200 9999 FEW020 BKN058 14/10 Q1019 NOSIG
Conditions at: LERT (ROTA NAVAL STATI, ES) observed 0400 UTC 19 February 2019
Temperature: 14.0°C (57°F)
Dewpoint: 10.0°C (50°F) [RH = 77%]
Pressure (altimeter): 30.09 inches Hg (1019.0 mb)
Winds: from the S (170 degrees) at 3 MPH (3 knots; 1.5 m/s)
Visibility: 6 or more miles (10+ km)
Ceiling: 5800 feet AGL
Clouds: few clouds at 2000 feet AGL
broken clouds at 5800 feet AGL
Weather: no significant weather observed at this time

METAR text: LERT 190300Z 19004KT 160V220 9999 FEW020 BKN048 14/10 Q1019 NOSIG
Conditions at: LERT (ROTA NAVAL STATI, ES) observed 0300 UTC 19 February 2019
Temperature: 14.0°C (57°F)
Dewpoint: 10.0°C (50°F) [RH = 77%]
Pressure (altimeter): 30.09 inches Hg (1019.0 mb)
Winds: from the S (190 degrees) at 5 MPH (4 knots; 2.1 m/s)
Visibility: 6 or more miles (10+ km)
Ceiling: 4800 feet AGL
Clouds: few clouds at 2000 feet AGL
broken clouds at 4800 feet AGL
Weather: no significant weather observed at this time

METAR text: LERT 190200Z 18006KT 140V220 9999 FEW015 SCT022 BKN055 14/11 Q1019 NOSIG
Conditions at: LERT (ROTA NAVAL STATI, ES) observed 0200 UTC 19 February 2019
Temperature: 14.0°C (57°F)
Dewpoint: 11.0°C (52°F) [RH = 82%]
Pressure (altimeter): 30.09 inches Hg (1019.0 mb)
Winds: from the S (180 degrees) at 7 MPH (6 knots; 3.1 m/s)
Visibility: 6 or more miles (10+ km)
Ceiling: 5500 feet AGL
Clouds: few clouds at 1500 feet AGL
scattered clouds at 2200 feet AGL
broken clouds at 5500 feet AGL
Weather: no significant weather observed at this time

METAR text: LERT 190100Z 18006KT 9999 FEW015 SCT022 14/11 Q1019 NOSIG
Conditions at: LERT (ROTA NAVAL STATI, ES) observed 0100 UTC 19 February 2019
Temperature: 14.0°C (57°F)
Dewpoint: 11.0°C (52°F) [RH = 82%]
Pressure (altimeter): 30.09 inches Hg (1019.0 mb)
Winds: from the S (180 degrees) at 7 MPH (6 knots; 3.1 m/s)
Visibility: 6 or more miles (10+ km)
Ceiling: at least 12,000 feet AGL
Clouds: few clouds at 1500 feet AGL
scattered clouds at 2200 feet AGL
Weather: no significant weather observed at this time

METAR text: LERT 190000Z 15005KT 110V200 9999 FEW015 BKN022 14/11 Q1019 NOSIG
Conditions at: LERT (ROTA NAVAL STATI, ES) observed 0000 UTC 19 February 2019
Temperature: 14.0°C (57°F)
Dewpoint: 11.0°C (52°F) [RH = 82%]
Pressure (altimeter): 30.09 inches Hg (1019.0 mb)
Winds: from the SSE (150 degrees) at 6 MPH (5 knots; 2.6 m/s)
Visibility: 6 or more miles (10+ km)
Ceiling: 2200 feet AGL
Clouds: few clouds at 1500 feet AGL
broken clouds at 2200 feet AGL
Weather: no significant weather observed at this time

METAR text: LERT 182300Z 14006KT 9999 FEW035 14/11 Q1018 NOSIG
Conditions at: LERT (ROTA NAVAL STATI, ES) observed 2300 UTC 18 February 2019
Temperature: 14.0°C (57°F)
Dewpoint: 11.0°C (52°F) [RH = 82%]
Pressure (altimeter): 30.06 inches Hg (1018.0 mb)
Winds: from the SE (140 degrees) at 7 MPH (6 knots; 3.1 m/s)
Visibility: 6 or more miles (10+ km)
Ceiling: at least 12,000 feet AGL
Clouds: few clouds at 3500 feet AGL
Weather: no significant weather observed at this time

METAR text: LERT 182200Z 14010KT 110V240 9999 FEW045 14/11 Q1018 NOSIG
Conditions at: LERT (ROTA NAVAL STATI, ES) observed 2200 UTC 18 February 2019
Temperature: 14.0°C (57°F)
Dewpoint: 11.0°C (52°F) [RH = 82%]
Pressure (altimeter): 30.06 inches Hg (1018.0 mb)
Winds: from the SE (140 degrees) at 12 MPH (10 knots; 5.1 m/s)
Visibility: 6 or more miles (10+ km)
Ceiling: at least 12,000 feet AGL
Clouds: few clouds at 4500 feet AGL
Weather: no significant weather observed at this time

METAR text: LERT 182100Z 13011KT 9999 FEW045 SCT059 14/10 Q1017 NOSIG
Conditions at: LERT (ROTA NAVAL STATI, ES) observed 2100 UTC 18 February 2019
Temperature: 14.0°C (57°F)
Dewpoint: 10.0°C (50°F) [RH = 77%]
Pressure (altimeter): 30.03 inches Hg (1017.0 mb)
Winds: from the SE (130 degrees) at 13 MPH (11 knots; 5.7 m/s)
Visibility: 6 or more miles (10+ km)
Ceiling: at least 12,000 feet AGL
Clouds: few clouds at 4500 feet AGL
scattered clouds at 5900 feet AGL
Weather: no significant weather observed at this time

METAR text: LERT 182000Z 12011KT 9999 SCT058 15/09 Q1016 NOSIG
Conditions at: LERT (ROTA NAVAL STATI, ES) observed 2000 UTC 18 February 2019
Temperature: 15.0°C (59°F)
Dewpoint: 9.0°C (48°F) [RH = 67%]
Pressure (altimeter): 30.00 inches Hg (1016.0 mb)
Winds: from the ESE (120 degrees) at 13 MPH (11 knots; 5.7 m/s)
Visibility: 6 or more miles (10+ km)
Ceiling: at least 12,000 feet AGL
Clouds: scattered clouds at 5800 feet AGL
Weather: no significant weather observed at this time

METAR text: LERT 181900Z 11012KT 090V150 9999 SCT058 15/09 Q1015 NOSIG
Conditions at: LERT (ROTA NAVAL STATI, ES) observed 1900 UTC 18 February 2019
Temperature: 15.0°C (59°F)
Dewpoint: 9.0°C (48°F) [RH = 67%]
Pressure (altimeter): 29.97 inches Hg (1015.0 mb)
Winds: from the ESE (110 degrees) at 14 MPH (12 knots; 6.2 m/s)
Visibility: 6 or more miles (10+ km)
Ceiling: at least 12,000 feet AGL
Clouds: scattered clouds at 5800 feet AGL
Weather: no significant weather observed at this time

METAR text: LERT 181800Z 11012KT 9999 FEW040 16/09 Q1015 NOSIG
Conditions at: LERT (ROTA NAVAL STATI, ES) observed 1800 UTC 18 February 2019
Temperature: 16.0°C (61°F)
Dewpoint: 9.0°C (48°F) [RH = 63%]
Pressure (altimeter): 29.97 inches Hg (1015.0 mb)
Winds: from the ESE (110 degrees) at 14 MPH (12 knots; 6.2 m/s)
Visibility: 6 or more miles (10+ km)
Ceiling: at least 12,000 feet AGL
Clouds: few clouds at 4000 feet AGL
Weather: no significant weather observed at this time

METAR text: LERT 181700Z 10014KT 9999 FEW040 16/10 Q1014 NOSIG
Conditions at: LERT (ROTA NAVAL STATI, ES) observed 1700 UTC 18 February 2019
Temperature: 16.0°C (61°F)
Dewpoint: 10.0°C (50°F) [RH = 68%]
Pressure (altimeter): 29.94 inches Hg (1014.0 mb)
Winds: from the E (100 degrees) at 16 MPH (14 knots; 7.2 m/s)
Visibility: 6 or more miles (10+ km)
Ceiling: at least 12,000 feet AGL
Clouds: few clouds at 4000 feet AGL
Weather: no significant weather observed at this time

METAR text: LERT 181600Z 11015KT 080V150 9999 FEW040 17/10 Q1014 NOSIG
Conditions at: LERT (ROTA NAVAL STATI, ES) observed 1600 UTC 18 February 2019
Temperature: 17.0°C (63°F)
Dewpoint: 10.0°C (50°F) [RH = 63%]
Pressure (altimeter): 29.94 inches Hg (1014.0 mb)
Winds: from the ESE (110 degrees) at 17 MPH (15 knots; 7.7 m/s)
Visibility: 6 or more miles (10+ km)
Ceiling: at least 12,000 feet AGL
Clouds: few clouds at 4000 feet AGL
Weather: no significant weather observed at this time

METAR text: LERT 181500Z 12014KT 080V150 9999 FEW040 17/10 Q1014 NOSIG
Conditions at: LERT (ROTA NAVAL STATI, ES) observed 1500 UTC 18 February 2019
Temperature: 17.0°C (63°F)
Dewpoint: 10.0°C (50°F) [RH = 63%]
Pressure (altimeter): 29.94 inches Hg (1014.0 mb)
Winds: from the ESE (120 degrees) at 16 MPH (14 knots; 7.2 m/s)
Visibility: 6 or more miles (10+ km)
Ceiling: at least 12,000 feet AGL
Clouds: few clouds at 4000 feet AGL
Weather: no significant weather observed at this time

METAR text: LERT 181400Z 13011KT 090V150 9999 FEW038 SCT055 17/10 Q1015 NOSIG
Conditions at: LERT (ROTA NAVAL STATI, ES) observed 1400 UTC 18 February 2019
Temperature: 17.0°C (63°F)
Dewpoint: 10.0°C (50°F) [RH = 63%]
Pressure (altimeter): 29.97 inches Hg (1015.0 mb)
Winds: from the SE (130 degrees) at 13 MPH (11 knots; 5.7 m/s)
Visibility: 6 or more miles (10+ km)
Ceiling: at least 12,000 feet AGL
Clouds: few clouds at 3800 feet AGL
scattered clouds at 5500 feet AGL
Weather: no significant weather observed at this time

METAR text: LERT 181300Z 12015KT 9999 FEW020 BKN037 17/10 Q1015 NOSIG
Conditions at: LERT (ROTA NAVAL STATI, ES) observed 1300 UTC 18 February 2019
Temperature: 17.0°C (63°F)
Dewpoint: 10.0°C (50°F) [RH = 63%]
Pressure (altimeter): 29.97 inches Hg (1015.0 mb)
Winds: from the ESE (120 degrees) at 17 MPH (15 knots; 7.7 m/s)
Visibility: 6 or more miles (10+ km)
Ceiling: 3700 feet AGL
Clouds: few clouds at 2000 feet AGL
broken clouds at 3700 feet AGL
Weather: no significant weather observed at this time

METAR text: LERT 181200Z 13011KT 090V200 9999 FEW024 OVC037 17/11 Q1015 NOSIG
Conditions at: LERT (ROTA NAVAL STATI, ES) observed 1200 UTC 18 February 2019
Temperature: 17.0°C (63°F)
Dewpoint: 11.0°C (52°F) [RH = 68%]
Pressure (altimeter): 29.97 inches Hg (1015.0 mb)
Winds: from the SE (130 degrees) at 13 MPH (11 knots; 5.7 m/s)
Visibility: 6 or more miles (10+ km)
Ceiling: 3700 feet AGL
Clouds: few clouds at 2400 feet AGL
overcast cloud deck at 3700 feet AGL
Weather: no significant weather observed at this time

METAR text: LERT 181100Z 13013KT 9999 FEW024 BKN037 16/11 Q1015 NOSIG
Conditions at: LERT (ROTA NAVAL STATI, ES) observed 1100 UTC 18 February 2019
Temperature: 16.0°C (61°F)
Dewpoint: 11.0°C (52°F) [RH = 72%]
Pressure (altimeter): 29.97 inches Hg (1015.0 mb)
Winds: from the SE (130 degrees) at 15 MPH (13 knots; 6.7 m/s)
Visibility: 6 or more miles (10+ km)
Ceiling: 3700 feet AGL
Clouds: few clouds at 2400 feet AGL
broken clouds at 3700 feet AGL
Weather: no significant weather observed at this time

METAR text: LERT 181000Z 12013KT 090V150 9999 FEW030 BKN040 15/11 Q1016 NOSIG
Conditions at: LERT (ROTA NAVAL STATI, ES) observed 1000 UTC 18 February 2019
Temperature: 15.0°C (59°F)
Dewpoint: 11.0°C (52°F) [RH = 77%]
Pressure (altimeter): 30.00 inches Hg (1016.0 mb)
Winds: from the ESE (120 degrees) at 15 MPH (13 knots; 6.7 m/s)
Visibility: 6 or more miles (10+ km)
Ceiling: 4000 feet AGL
Clouds: few clouds at 3000 feet AGL
broken clouds at 4000 feet AGL
Weather: no significant weather observed at this time

METAR text: LERT 180900Z 13015KT 090V150 9999 SCT031 OVC038 14/10 Q1015 TEMPO 4000 RA SCT009
Conditions at: LERT (ROTA NAVAL STATI, ES) observed 0900 UTC 18 February 2019
Temperature: 14.0°C (57°F)
Dewpoint: 10.0°C (50°F) [RH = 77%]
Pressure (altimeter): 29.97 inches Hg (1015.0 mb)
Winds: from the SE (130 degrees) at 17 MPH (15 knots; 7.7 m/s)
Visibility: 6 or more miles (10+ km)
Ceiling: 3800 feet AGL
Clouds: scattered clouds at 3100 feet AGL
overcast cloud deck at 3800 feet AGL
Weather: no significant weather observed at this time

METAR text: LERT 180800Z 12015KT 090V150 9999 SCT031 BKN040 BKN055 14/10 Q1015 TEMPO 4000 RA SCT009
Conditions at: LERT (ROTA NAVAL STATI, ES) observed 0800 UTC 18 February 2019
Temperature: 14.0°C (57°F)
Dewpoint: 10.0°C (50°F) [RH = 77%]
Pressure (altimeter): 29.97 inches Hg (1015.0 mb)
Winds: from the ESE (120 degrees) at 17 MPH (15 knots; 7.7 m/s)
Visibility: 6 or more miles (10+ km)
Ceiling: 4000 feet AGL
Clouds: scattered clouds at 3100 feet AGL
broken clouds at 4000 feet AGL
broken clouds at 5500 feet AGL
Weather: no significant weather observed at this time

METAR text: LERT 180700Z 12014KT 090V150 9999 SCT031 14/10 Q1015 TEMPO 4000 RA SCT009
Conditions at: LERT (ROTA NAVAL STATI, ES) observed 0700 UTC 18 February 2019
Temperature: 14.0°C (57°F)
Dewpoint: 10.0°C (50°F) [RH = 77%]
Pressure (altimeter): 29.97 inches Hg (1015.0 mb)
Winds: from the ESE (120 degrees) at 16 MPH (14 knots; 7.2 m/s)
Visibility: 6 or more miles (10+ km)
Ceiling: at least 12,000 feet AGL
Clouds: scattered clouds at 3100 feet AGL
Weather: no significant weather observed at this time

METAR text: LERT 180600Z 13011KT 090V160 9999 BKN033 SCT058 13/10 Q1015 TEMPO 4000 RA BKN005
Conditions at: LERT (ROTA NAVAL STATI, ES) observed 0600 UTC 18 February 2019
Temperature: 13.0°C (55°F)
Dewpoint: 10.0°C (50°F) [RH = 82%]
Pressure (altimeter): 29.97 inches Hg (1015.0 mb)
Winds: from the SE (130 degrees) at 13 MPH (11 knots; 5.7 m/s)
Visibility: 6 or more miles (10+ km)
Ceiling: 3300 feet AGL
Clouds: broken clouds at 3300 feet AGL
scattered clouds at 5800 feet AGL
Weather: no significant weather observed at this time

METAR text: LERT 180500Z 12012KT 9999 FEW030 13/10 Q1015 TEMPO 4000 RA BKN005
Conditions at: LERT (ROTA NAVAL STATI, ES) observed 0500 UTC 18 February 2019
Temperature: 13.0°C (55°F)
Dewpoint: 10.0°C (50°F) [RH = 82%]
Pressure (altimeter): 29.97 inches Hg (1015.0 mb)
Winds: from the ESE (120 degrees) at 14 MPH (12 knots; 6.2 m/s)
Visibility: 6 or more miles (10+ km)
Ceiling: at least 12,000 feet AGL
Clouds: few clouds at 3000 feet AGL
Weather: no significant weather observed at this time

METAR text: LERT 180400Z 13013KT 9999 SCT043 13/10 Q1016 TEMPO 4000 RA BKN005
Conditions at: LERT (ROTA NAVAL STATI, ES) observed 0400 UTC 18 February 2019
Temperature: 13.0°C (55°F)
Dewpoint: 10.0°C (50°F) [RH = 82%]
Pressure (altimeter): 30.00 inches Hg (1016.0 mb)
Winds: from the SE (130 degrees) at 15 MPH (13 knots; 6.7 m/s)
Visibility: 6 or more miles (10+ km)
Ceiling: at least 12,000 feet AGL
Clouds: scattered clouds at 4300 feet AGL
Weather: no significant weather observed at this time

METAR text: LERT 180300Z 13011KT 090V150 9999 BKN047 13/10 Q1017 NOSIG
Conditions at: LERT (ROTA NAVAL STATI, ES) observed 0300 UTC 18 February 2019
Temperature: 13.0°C (55°F)
Dewpoint: 10.0°C (50°F) [RH = 82%]
Pressure (altimeter): 30.03 inches Hg (1017.0 mb)
Winds: from the SE (130 degrees) at 13 MPH (11 knots; 5.7 m/s)
Visibility: 6 or more miles (10+ km)
Ceiling: 4700 feet AGL
Clouds: broken clouds at 4700 feet AGL
Weather: no significant weather observed at this time

METAR text: LERT 180200Z 14009KT 9999 BKN049 13/10 Q1017 NOSIG
Conditions at: LERT (ROTA NAVAL STATI, ES) observed 0200 UTC 18 February 2019
Temperature: 13.0°C (55°F)
Dewpoint: 10.0°C (50°F) [RH = 82%]
Pressure (altimeter): 30.03 inches Hg (1017.0 mb)
Winds: from the SE (140 degrees) at 10 MPH (9 knots; 4.6 m/s)
Visibility: 6 or more miles (10+ km)
Ceiling: 4900 feet AGL
Clouds: broken clouds at 4900 feet AGL
Weather: no significant weather observed at this time

METAR text: LERT 180100Z 13011KT 9999 FEW046 13/10 Q1018 NOSIG
Conditions at: LERT (ROTA NAVAL STATI, ES) observed 0100 UTC 18 February 2019
Temperature: 13.0°C (55°F)
Dewpoint: 10.0°C (50°F) [RH = 82%]
Pressure (altimeter): 30.06 inches Hg (1018.0 mb)
Winds: from the SE (130 degrees) at 13 MPH (11 knots; 5.7 m/s)
Visibility: 6 or more miles (10+ km)
Ceiling: at least 12,000 feet AGL
Clouds: few clouds at 4600 feet AGL
Weather: no significant weather observed at this time

METAR text: LERT 180000Z 13011KT CAVOK 13/10 Q1018 NOSIG
Conditions at: LERT (ROTA NAVAL STATI, ES) observed 0000 UTC 18 February 2019
Temperature: 13.0°C (55°F)
Dewpoint: 10.0°C (50°F) [RH = 82%]
Pressure (altimeter): 30.06 inches Hg (1018.0 mb)
Winds: from the SE (130 degrees) at 13 MPH (11 knots; 5.7 m/s)
Visibility: 6 or more miles (10+ km)
Ceiling: ceiling and visibility are OK
Clouds: unknown
Weather: no significant weather observed at this time

METAR text: LERT 172300Z 13010KT CAVOK 13/10 Q1019 NOSIG
Conditions at: LERT (ROTA NAVAL STATI, ES) observed 2300 UTC 17 February 2019
Temperature: 13.0°C (55°F)
Dewpoint: 10.0°C (50°F) [RH = 82%]
Pressure (altimeter): 30.09 inches Hg (1019.0 mb)
Winds: from the SE (130 degrees) at 12 MPH (10 knots; 5.1 m/s)
Visibility: 6 or more miles (10+ km)
Ceiling: ceiling and visibility are OK
Clouds: unknown
Weather: no significant weather observed at this time

METAR text: LERT 172200Z 14011KT CAVOK 13/10 Q1019 NOSIG
Conditions at: LERT (ROTA NAVAL STATI, ES) observed 2200 UTC 17 February 2019
Temperature: 13.0°C (55°F)
Dewpoint: 10.0°C (50°F) [RH = 82%]
Pressure (altimeter): 30.09 inches Hg (1019.0 mb)
Winds: from the SE (140 degrees) at 13 MPH (11 knots; 5.7 m/s)
Visibility: 6 or more miles (10+ km)
Ceiling: ceiling and visibility are OK
Clouds: unknown
Weather: no significant weather observed at this time

METAR text: LERT 172100Z 14010KT 110V220 CAVOK 14/10 Q1019 NOSIG
Conditions at: LERT (ROTA NAVAL STATI, ES) observed 2100 UTC 17 February 2019
Temperature: 14.0°C (57°F)
Dewpoint: 10.0°C (50°F) [RH = 77%]
Pressure (altimeter): 30.09 inches Hg (1019.0 mb)
Winds: from the SE (140 degrees) at 12 MPH (10 knots; 5.1 m/s)
Visibility: 6 or more miles (10+ km)
Ceiling: ceiling and visibility are OK
Clouds: unknown
Weather: no significant weather observed at this time

METAR text: LERT 172000Z 14009KT CAVOK 14/10 Q1019 NOSIG
Conditions at: LERT (ROTA NAVAL STATI, ES) observed 2000 UTC 17 February 2019
Temperature: 14.0°C (57°F)
Dewpoint: 10.0°C (50°F) [RH = 77%]
Pressure (altimeter): 30.09 inches Hg (1019.0 mb)
Winds: from the SE (140 degrees) at 10 MPH (9 knots; 4.6 m/s)
Visibility: 6 or more miles (10+ km)
Ceiling: ceiling and visibility are OK
Clouds: unknown
Weather: no significant weather observed at this time

METAR text: LERT 171900Z 13012KT CAVOK 15/10 Q1019 NOSIG
Conditions at: LERT (ROTA NAVAL STATI, ES) observed 1900 UTC 17 February 2019
Temperature: 15.0°C (59°F)
Dewpoint: 10.0°C (50°F) [RH = 72%]
Pressure (altimeter): 30.09 inches Hg (1019.0 mb)
Winds: from the SE (130 degrees) at 14 MPH (12 knots; 6.2 m/s)
Visibility: 6 or more miles (10+ km)
Ceiling: ceiling and visibility are OK
Clouds: unknown
Weather: no significant weather observed at this time

METAR text: LERT 171800Z 12010KT CAVOK 16/10 Q1019 NOSIG
Conditions at: LERT (ROTA NAVAL STATI, ES) observed 1800 UTC 17 February 2019
Temperature: 16.0°C (61°F)
Dewpoint: 10.0°C (50°F) [RH = 68%]
Pressure (altimeter): 30.09 inches Hg (1019.0 mb)
Winds: from the ESE (120 degrees) at 12 MPH (10 knots; 5.1 m/s)
Visibility: 6 or more miles (10+ km)
Ceiling: ceiling and visibility are OK
Clouds: unknown
Weather: no significant weather observed at this time

Forecast for: LERT (ROTA NAVAL STATI, ES)
Text: TAF LERT 190200Z 1903/1912 14006KT 9999 SCT025
Forecast period: 0300 to 1200 UTC 19 February 2019
Forecast type: FROM: standard forecast or significant change
Winds: from the SE (140 degrees) at 7 MPH (6 knots; 3.1 m/s)
Visibility: 6 or more miles 10+ km)
Ceiling: at least 12,000 feet AGL
Clouds: scattered clouds at 2500 feet AGL
Weather: no significant weather forecast for this period